Snyder Corner, Pennsylvania
Current Conditions -  °F | °C
As of 12:53 AM on Sunday 26 Oct 2014 (Local Time) from KTHV Reporting Station
Clear Clear  
Wind Chill: 61°   Ceiling: Unl
Heat Index: 61°   Visibility: 10mi
Dew Point: 49°   Wind: 6mph
Humidity: 64%   Direction: 260°W
Pressure: 29.64"   Gusts: NA
Location:  39.8974°N, 76.608°W
Report Text: KTHV 260453Z AUTO 26005KT 10SM CLR 16/09 A2964 RMK AO2 SLP036 T01610094 402110028
Loading
Personal Weather Stations






























Interactive Weather Map
Tropical Storm Tracking
New forecast layout! Learn more

10-Day Weather Forecast

Advertisements
Track Severe Weather on mobile